sensor_id;sensor_type;location;lat;lon;timestamp;temperature;humidity
59660;DHT22;45534;52.690;6.268;2023-06-22T00:00:55;17.70;99.90
59660;DHT22;45534;52.690;6.268;2023-06-22T00:03:23;17.70;99.90
59660;DHT22;45534;52.690;6.268;2023-06-22T00:05:50;17.70;99.90
59660;DHT22;45534;52.690;6.268;2023-06-22T00:08:16;17.70;99.90
59660;DHT22;45534;52.690;6.268;2023-06-22T00:10:43;17.70;99.90
59660;DHT22;45534;52.690;6.268;2023-06-22T00:13:09;17.70;99.90
59660;DHT22;45534;52.690;6.268;2023-06-22T00:15:37;17.70;99.90
59660;DHT22;45534;52.690;6.268;2023-06-22T00:18:03;17.70;99.90
59660;DHT22;45534;52.690;6.268;2023-06-22T00:20:29;17.70;99.90
59660;DHT22;45534;52.690;6.268;2023-06-22T00:22:56;17.60;99.90
59660;DHT22;45534;52.690;6.268;2023-06-22T00:25:22;17.60;99.90
59660;DHT22;45534;52.690;6.268;2023-06-22T00:27:48;17.50;99.90
59660;DHT22;45534;52.690;6.268;2023-06-22T00:30:15;17.50;99.90
59660;DHT22;45534;52.690;6.268;2023-06-22T00:32:41;17.50;99.90
59660;DHT22;45534;52.690;6.268;2023-06-22T00:35:07;17.50;99.90
59660;DHT22;45534;52.690;6.268;2023-06-22T00:37:34;17.50;99.90
59660;DHT22;45534;52.690;6.268;2023-06-22T00:40:01;17.60;99.90
59660;DHT22;45534;52.690;6.268;2023-06-22T00:42:27;17.60;99.90
59660;DHT22;45534;52.690;6.268;2023-06-22T00:44:53;17.50;99.90
59660;DHT22;45534;52.690;6.268;2023-06-22T00:47:18;17.40;99.90
59660;DHT22;45534;52.690;6.268;2023-06-22T00:49:45;17.30;99.90
59660;DHT22;45534;52.690;6.268;2023-06-22T00:52:12;17.30;99.90
59660;DHT22;45534;52.690;6.268;2023-06-22T00:54:47;17.20;99.90
59660;DHT22;45534;52.690;6.268;2023-06-22T00:57:14;17.30;99.90
59660;DHT22;45534;52.690;6.268;2023-06-22T00:59:47;17.20;99.90
59660;DHT22;45534;52.690;6.268;2023-06-22T01:02:14;17.20;99.90
59660;DHT22;45534;52.690;6.268;2023-06-22T01:04:40;17.20;99.90
59660;DHT22;45534;52.690;6.268;2023-06-22T01:10:03;17.10;99.90
59660;DHT22;45534;52.690;6.268;2023-06-22T01:12:38;17.10;99.90
59660;DHT22;45534;52.690;6.268;2023-06-22T01:15:05;17.00;99.90
59660;DHT22;45534;52.690;6.268;2023-06-22T01:17:35;16.90;99.90
59660;DHT22;45534;52.690;6.268;2023-06-22T01:20:02;16.80;99.90
59660;DHT22;45534;52.690;6.268;2023-06-22T01:22:36;16.80;99.90
59660;DHT22;45534;52.690;6.268;2023-06-22T01:25:12;16.80;99.90
59660;DHT22;45534;52.690;6.268;2023-06-22T01:30:33;16.90;99.90
59660;DHT22;45534;52.690;6.268;2023-06-22T01:33:01;16.90;99.90
59660;DHT22;45534;52.690;6.268;2023-06-22T01:35:29;16.90;99.90
59660;DHT22;45534;52.690;6.268;2023-06-22T01:37:56;16.90;99.90
59660;DHT22;45534;52.690;6.268;2023-06-22T01:40:22;16.90;99.90
59660;DHT22;45534;52.690;6.268;2023-06-22T01:42:49;16.80;99.90
59660;DHT22;45534;52.690;6.268;2023-06-22T01:45:16;16.80;99.90
59660;DHT22;45534;52.690;6.268;2023-06-22T01:47:42;16.90;99.90
59660;DHT22;45534;52.690;6.268;2023-06-22T01:50:09;16.80;99.90
59660;DHT22;45534;52.690;6.268;2023-06-22T01:52:34;16.70;99.90
59660;DHT22;45534;52.690;6.268;2023-06-22T01:55:00;16.70;99.90
59660;DHT22;45534;52.690;6.268;2023-06-22T01:57:26;16.70;99.90
59660;DHT22;45534;52.690;6.268;2023-06-22T02:00:02;16.70;99.90
59660;DHT22;45534;52.690;6.268;2023-06-22T02:02:51;16.70;99.90
59660;DHT22;45534;52.690;6.268;2023-06-22T02:05:18;16.70;99.90
59660;DHT22;45534;52.690;6.268;2023-06-22T02:07:49;16.70;99.90
59660;DHT22;45534;52.690;6.268;2023-06-22T02:10:20;16.70;99.90
59660;DHT22;45534;52.690;6.268;2023-06-22T02:12:48;16.70;99.90
59660;DHT22;45534;52.690;6.268;2023-06-22T02:15:14;16.60;99.90
59660;DHT22;45534;52.690;6.268;2023-06-22T02:17:40;16.60;99.90
59660;DHT22;45534;52.690;6.268;2023-06-22T02:20:14;16.50;99.90
59660;DHT22;45534;52.690;6.268;2023-06-22T02:22:40;16.50;99.90
59660;DHT22;45534;52.690;6.268;2023-06-22T02:25:06;16.50;99.90
59660;DHT22;45534;52.690;6.268;2023-06-22T02:27:31;16.50;99.90
59660;DHT22;45534;52.690;6.268;2023-06-22T02:29:57;16.60;99.90
59660;DHT22;45534;52.690;6.268;2023-06-22T02:32:23;16.60;99.90
59660;DHT22;45534;52.690;6.268;2023-06-22T02:34:49;16.60;99.90
59660;DHT22;45534;52.690;6.268;2023-06-22T02:37:15;16.60;99.90
59660;DHT22;45534;52.690;6.268;2023-06-22T02:39:40;16.50;99.90
59660;DHT22;45534;52.690;6.268;2023-06-22T02:42:06;16.40;99.90
59660;DHT22;45534;52.690;6.268;2023-06-22T02:44:32;16.30;99.90
59660;DHT22;45534;52.690;6.268;2023-06-22T02:46:58;16.20;99.90
59660;DHT22;45534;52.690;6.268;2023-06-22T02:49:24;16.10;99.90
59660;DHT22;45534;52.690;6.268;2023-06-22T02:51:50;16.00;99.90
59660;DHT22;45534;52.690;6.268;2023-06-22T02:54:16;16.10;99.90
59660;DHT22;45534;52.690;6.268;2023-06-22T02:56:42;16.10;99.90
59660;DHT22;45534;52.690;6.268;2023-06-22T02:59:11;16.10;99.90
59660;DHT22;45534;52.690;6.268;2023-06-22T03:01:37;16.10;99.90
59660;DHT22;45534;52.690;6.268;2023-06-22T03:04:06;16.10;99.90
59660;DHT22;45534;52.690;6.268;2023-06-22T03:06:32;16.10;99.90
59660;DHT22;45534;52.690;6.268;2023-06-22T03:09:05;16.10;99.90
59660;DHT22;45534;52.690;6.268;2023-06-22T03:11:34;16.10;99.90
59660;DHT22;45534;52.690;6.268;2023-06-22T03:14:02;16.10;99.90
59660;DHT22;45534;52.690;6.268;2023-06-22T03:16:28;16.10;99.90
59660;DHT22;45534;52.690;6.268;2023-06-22T03:18:54;16.10;99.90
59660;DHT22;45534;52.690;6.268;2023-06-22T03:21:22;16.10;99.90
59660;DHT22;45534;52.690;6.268;2023-06-22T03:23:48;16.10;99.90
59660;DHT22;45534;52.690;6.268;2023-06-22T03:26:16;16.10;99.90
59660;DHT22;45534;52.690;6.268;2023-06-22T03:28:42;16.00;99.90
59660;DHT22;45534;52.690;6.268;2023-06-22T03:31:08;16.00;99.90
59660;DHT22;45534;52.690;6.268;2023-06-22T03:33:34;16.00;99.90
59660;DHT22;45534;52.690;6.268;2023-06-22T03:35:59;15.90;99.90
59660;DHT22;45534;52.690;6.268;2023-06-22T03:38:25;15.90;99.90
59660;DHT22;45534;52.690;6.268;2023-06-22T03:40:51;15.90;99.90
59660;DHT22;45534;52.690;6.268;2023-06-22T03:43:16;15.90;99.90
59660;DHT22;45534;52.690;6.268;2023-06-22T03:45:42;15.90;99.90
59660;DHT22;45534;52.690;6.268;2023-06-22T03:48:11;15.90;99.90
59660;DHT22;45534;52.690;6.268;2023-06-22T03:50:36;15.90;99.90
59660;DHT22;45534;52.690;6.268;2023-06-22T03:53:02;15.90;99.90
59660;DHT22;45534;52.690;6.268;2023-06-22T03:55:28;15.90;99.90
59660;DHT22;45534;52.690;6.268;2023-06-22T03:57:53;15.90;99.90
59660;DHT22;45534;52.690;6.268;2023-06-22T04:00:22;15.90;99.90
59660;DHT22;45534;52.690;6.268;2023-06-22T04:02:48;15.90;99.90
59660;DHT22;45534;52.690;6.268;2023-06-22T04:05:14;15.90;99.90
59660;DHT22;45534;52.690;6.268;2023-06-22T04:07:40;16.00;99.90
59660;DHT22;45534;52.690;6.268;2023-06-22T04:10:06;16.00;99.90
59660;DHT22;45534;52.690;6.268;2023-06-22T04:12:33;15.90;99.90
59660;DHT22;45534;52.690;6.268;2023-06-22T04:14:59;15.90;99.90
59660;DHT22;45534;52.690;6.268;2023-06-22T04:17:25;16.00;99.90
59660;DHT22;45534;52.690;6.268;2023-06-22T04:19:51;16.00;99.90
59660;DHT22;45534;52.690;6.268;2023-06-22T04:22:17;16.10;99.90
59660;DHT22;45534;52.690;6.268;2023-06-22T04:24:44;16.10;99.90
59660;DHT22;45534;52.690;6.268;2023-06-22T04:27:10;16.10;99.90
59660;DHT22;45534;52.690;6.268;2023-06-22T04:29:36;16.10;99.90
59660;DHT22;45534;52.690;6.268;2023-06-22T04:32:02;16.10;99.90
59660;DHT22;45534;52.690;6.268;2023-06-22T04:34:31;16.10;99.90
59660;DHT22;45534;52.690;6.268;2023-06-22T04:36:57;16.10;99.90
59660;DHT22;45534;52.690;6.268;2023-06-22T04:39:23;16.10;99.90
59660;DHT22;45534;52.690;6.268;2023-06-22T04:41:49;16.20;99.90
59660;DHT22;45534;52.690;6.268;2023-06-22T04:44:17;16.20;99.90
59660;DHT22;45534;52.690;6.268;2023-06-22T04:46:57;16.20;99.90
59660;DHT22;45534;52.690;6.268;2023-06-22T04:49:26;16.30;99.90
59660;DHT22;45534;52.690;6.268;2023-06-22T04:52:05;16.30;99.90
59660;DHT22;45534;52.690;6.268;2023-06-22T04:54:32;16.30;99.90
59660;DHT22;45534;52.690;6.268;2023-06-22T04:57:05;16.40;99.90
59660;DHT22;45534;52.690;6.268;2023-06-22T04:59:35;16.50;99.90
59660;DHT22;45534;52.690;6.268;2023-06-22T05:02:02;16.60;99.90
59660;DHT22;45534;52.690;6.268;2023-06-22T05:04:29;16.60;99.90
59660;DHT22;45534;52.690;6.268;2023-06-22T05:06:57;16.60;99.90
59660;DHT22;45534;52.690;6.268;2023-06-22T05:09:23;16.70;99.90
59660;DHT22;45534;52.690;6.268;2023-06-22T05:11:50;16.70;99.90
59660;DHT22;45534;52.690;6.268;2023-06-22T05:14:16;16.80;99.90
59660;DHT22;45534;52.690;6.268;2023-06-22T05:16:42;16.90;99.90
59660;DHT22;45534;52.690;6.268;2023-06-22T05:19:08;16.90;99.90
59660;DHT22;45534;52.690;6.268;2023-06-22T05:21:34;17.00;99.90
59660;DHT22;45534;52.690;6.268;2023-06-22T05:24:00;17.00;99.90
59660;DHT22;45534;52.690;6.268;2023-06-22T05:26:29;17.10;99.90
59660;DHT22;45534;52.690;6.268;2023-06-22T05:28:55;17.20;99.90
59660;DHT22;45534;52.690;6.268;2023-06-22T05:31:21;17.20;99.90
59660;DHT22;45534;52.690;6.268;2023-06-22T05:33:47;17.30;99.90
59660;DHT22;45534;52.690;6.268;2023-06-22T05:36:13;17.30;99.90
59660;DHT22;45534;52.690;6.268;2023-06-22T05:38:40;17.40;99.90
59660;DHT22;45534;52.690;6.268;2023-06-22T05:41:06;17.50;99.90
59660;DHT22;45534;52.690;6.268;2023-06-22T05:43:32;17.60;99.90
59660;DHT22;45534;52.690;6.268;2023-06-22T05:45:59;17.60;99.90
59660;DHT22;45534;52.690;6.268;2023-06-22T05:48:24;17.70;99.90
59660;DHT22;45534;52.690;6.268;2023-06-22T05:50:50;17.80;99.90
59660;DHT22;45534;52.690;6.268;2023-06-22T05:53:16;17.90;99.90
59660;DHT22;45534;52.690;6.268;2023-06-22T05:55:42;17.90;99.90
59660;DHT22;45534;52.690;6.268;2023-06-22T05:58:08;18.00;99.90
59660;DHT22;45534;52.690;6.268;2023-06-22T06:00:34;18.00;99.90
59660;DHT22;45534;52.690;6.268;2023-06-22T06:03:00;18.10;99.90
59660;DHT22;45534;52.690;6.268;2023-06-22T06:05:33;18.10;99.90
59660;DHT22;45534;52.690;6.268;2023-06-22T06:08:03;18.20;99.90
59660;DHT22;45534;52.690;6.268;2023-06-22T06:10:31;18.30;99.90
59660;DHT22;45534;52.690;6.268;2023-06-22T06:12:56;18.30;99.90
59660;DHT22;45534;52.690;6.268;2023-06-22T06:15:22;18.40;99.90
59660;DHT22;45534;52.690;6.268;2023-06-22T06:17:49;18.40;99.90
59660;DHT22;45534;52.690;6.268;2023-06-22T06:20:19;18.50;99.90
59660;DHT22;45534;52.690;6.268;2023-06-22T06:22:45;18.60;99.90
59660;DHT22;45534;52.690;6.268;2023-06-22T06:25:11;18.70;99.90
59660;DHT22;45534;52.690;6.268;2023-06-22T06:27:42;18.70;99.90
59660;DHT22;45534;52.690;6.268;2023-06-22T06:30:09;18.80;99.90
59660;DHT22;45534;52.690;6.268;2023-06-22T06:32:35;19.00;99.90
59660;DHT22;45534;52.690;6.268;2023-06-22T06:35:01;19.10;99.90
59660;DHT22;45534;52.690;6.268;2023-06-22T06:37:27;19.20;99.90
59660;DHT22;45534;52.690;6.268;2023-06-22T06:39:53;19.20;99.90
59660;DHT22;45534;52.690;6.268;2023-06-22T06:42:19;19.30;99.90
59660;DHT22;45534;52.690;6.268;2023-06-22T06:44:45;19.30;99.90
59660;DHT22;45534;52.690;6.268;2023-06-22T06:47:11;19.40;99.90
59660;DHT22;45534;52.690;6.268;2023-06-22T06:49:36;19.50;99.90
59660;DHT22;45534;52.690;6.268;2023-06-22T06:52:02;19.50;99.90
59660;DHT22;45534;52.690;6.268;2023-06-22T06:54:28;19.60;99.90
59660;DHT22;45534;52.690;6.268;2023-06-22T06:56:54;19.70;99.90
59660;DHT22;45534;52.690;6.268;2023-06-22T06:59:19;19.80;99.90
59660;DHT22;45534;52.690;6.268;2023-06-22T07:01:45;20.00;99.90
59660;DHT22;45534;52.690;6.268;2023-06-22T07:04:11;20.10;99.90
59660;DHT22;45534;52.690;6.268;2023-06-22T07:06:36;20.30;99.90
59660;DHT22;45534;52.690;6.268;2023-06-22T07:09:03;20.50;99.90
59660;DHT22;45534;52.690;6.268;2023-06-22T07:11:29;20.60;99.90
59660;DHT22;45534;52.690;6.268;2023-06-22T07:13:54;20.80;99.90
59660;DHT22;45534;52.690;6.268;2023-06-22T07:16:20;20.80;99.90
59660;DHT22;45534;52.690;6.268;2023-06-22T07:18:46;20.80;99.90
59660;DHT22;45534;52.690;6.268;2023-06-22T07:21:11;20.90;99.90
59660;DHT22;45534;52.690;6.268;2023-06-22T07:23:37;21.00;99.90
59660;DHT22;45534;52.690;6.268;2023-06-22T07:26:02;21.10;99.90
59660;DHT22;45534;52.690;6.268;2023-06-22T07:28:28;21.10;99.90
59660;DHT22;45534;52.690;6.268;2023-06-22T07:31:02;21.30;99.90
59660;DHT22;45534;52.690;6.268;2023-06-22T07:33:28;21.50;99.90
59660;DHT22;45534;52.690;6.268;2023-06-22T07:35:54;21.60;99.90
59660;DHT22;45534;52.690;6.268;2023-06-22T07:38:19;21.60;99.90
59660;DHT22;45534;52.690;6.268;2023-06-22T07:40:45;21.70;99.90
59660;DHT22;45534;52.690;6.268;2023-06-22T07:43:11;21.70;99.90
59660;DHT22;45534;52.690;6.268;2023-06-22T07:45:38;21.70;99.90
59660;DHT22;45534;52.690;6.268;2023-06-22T07:48:07;21.70;99.90
59660;DHT22;45534;52.690;6.268;2023-06-22T07:50:33;21.80;99.90
59660;DHT22;45534;52.690;6.268;2023-06-22T07:52:59;21.90;99.90
59660;DHT22;45534;52.690;6.268;2023-06-22T07:55:24;22.00;99.90
59660;DHT22;45534;52.690;6.268;2023-06-22T07:57:50;22.20;99.90
59660;DHT22;45534;52.690;6.268;2023-06-22T08:00:17;22.30;99.90
59660;DHT22;45534;52.690;6.268;2023-06-22T08:02:45;22.40;99.90
59660;DHT22;45534;52.690;6.268;2023-06-22T08:05:11;22.30;99.90
59660;DHT22;45534;52.690;6.268;2023-06-22T08:07:38;22.40;99.90
59660;DHT22;45534;52.690;6.268;2023-06-22T08:10:05;22.40;99.90
59660;DHT22;45534;52.690;6.268;2023-06-22T08:12:31;22.40;99.90
59660;DHT22;45534;52.690;6.268;2023-06-22T08:14:57;22.40;99.90
59660;DHT22;45534;52.690;6.268;2023-06-22T08:17:26;22.50;99.90
59660;DHT22;45534;52.690;6.268;2023-06-22T08:19:52;22.70;99.90
59660;DHT22;45534;52.690;6.268;2023-06-22T08:22:17;22.70;99.90
59660;DHT22;45534;52.690;6.268;2023-06-22T08:24:44;22.70;99.90
59660;DHT22;45534;52.690;6.268;2023-06-22T08:27:10;22.70;99.90
59660;DHT22;45534;52.690;6.268;2023-06-22T08:29:40;22.80;99.90
59660;DHT22;45534;52.690;6.268;2023-06-22T08:32:09;22.90;99.90
59660;DHT22;45534;52.690;6.268;2023-06-22T08:34:35;23.10;99.90
59660;DHT22;45534;52.690;6.268;2023-06-22T08:37:10;23.40;99.90
59660;DHT22;45534;52.690;6.268;2023-06-22T08:39:36;23.70;99.90
59660;DHT22;45534;52.690;6.268;2023-06-22T08:42:02;23.80;99.90
59660;DHT22;45534;52.690;6.268;2023-06-22T08:44:28;23.90;99.90
59660;DHT22;45534;52.690;6.268;2023-06-22T08:46:54;24.00;99.90
59660;DHT22;45534;52.690;6.268;2023-06-22T08:49:20;24.20;99.90
59660;DHT22;45534;52.690;6.268;2023-06-22T08:51:46;24.30;99.90
59660;DHT22;45534;52.690;6.268;2023-06-22T08:54:14;24.40;99.90
59660;DHT22;45534;52.690;6.268;2023-06-22T08:56:40;24.40;99.90
59660;DHT22;45534;52.690;6.268;2023-06-22T08:59:06;24.20;99.90
59660;DHT22;45534;52.690;6.268;2023-06-22T09:01:33;24.20;99.90
59660;DHT22;45534;52.690;6.268;2023-06-22T09:03:58;24.40;99.90
59660;DHT22;45534;52.690;6.268;2023-06-22T09:06:25;24.60;99.90
59660;DHT22;45534;52.690;6.268;2023-06-22T09:08:51;24.60;99.90
59660;DHT22;45534;52.690;6.268;2023-06-22T09:11:17;24.70;99.90
59660;DHT22;45534;52.690;6.268;2023-06-22T09:13:42;24.90;99.90
59660;DHT22;45534;52.690;6.268;2023-06-22T09:16:08;25.10;99.90
59660;DHT22;45534;52.690;6.268;2023-06-22T09:18:34;25.30;99.90
59660;DHT22;45534;52.690;6.268;2023-06-22T09:21:01;25.50;99.90
59660;DHT22;45534;52.690;6.268;2023-06-22T09:23:27;25.60;99.90
59660;DHT22;45534;52.690;6.268;2023-06-22T09:25:53;25.60;99.90
59660;DHT22;45534;52.690;6.268;2023-06-22T09:28:18;25.70;99.90
59660;DHT22;45534;52.690;6.268;2023-06-22T09:30:44;25.70;99.90
59660;DHT22;45534;52.690;6.268;2023-06-22T09:33:10;25.60;99.90
59660;DHT22;45534;52.690;6.268;2023-06-22T09:35:35;25.70;99.90
59660;DHT22;45534;52.690;6.268;2023-06-22T09:38:01;25.80;99.90
59660;DHT22;45534;52.690;6.268;2023-06-22T09:40:27;25.80;99.90
59660;DHT22;45534;52.690;6.268;2023-06-22T09:42:52;25.70;99.90
59660;DHT22;45534;52.690;6.268;2023-06-22T09:45:18;25.40;99.90
59660;DHT22;45534;52.690;6.268;2023-06-22T09:47:44;25.30;99.90
59660;DHT22;45534;52.690;6.268;2023-06-22T09:50:09;25.10;99.90
59660;DHT22;45534;52.690;6.268;2023-06-22T09:52:35;25.10;99.90
59660;DHT22;45534;52.690;6.268;2023-06-22T09:55:01;25.20;99.90
59660;DHT22;45534;52.690;6.268;2023-06-22T09:57:29;25.30;99.90
59660;DHT22;45534;52.690;6.268;2023-06-22T09:59:55;25.40;99.90
59660;DHT22;45534;52.690;6.268;2023-06-22T10:02:21;25.60;99.90
59660;DHT22;45534;52.690;6.268;2023-06-22T10:04:48;25.80;99.90
59660;DHT22;45534;52.690;6.268;2023-06-22T10:07:13;25.80;99.90
59660;DHT22;45534;52.690;6.268;2023-06-22T10:09:39;25.80;99.90
59660;DHT22;45534;52.690;6.268;2023-06-22T10:12:05;25.90;99.90
59660;DHT22;45534;52.690;6.268;2023-06-22T10:14:31;26.00;99.90
59660;DHT22;45534;52.690;6.268;2023-06-22T10:16:57;25.90;99.90
59660;DHT22;45534;52.690;6.268;2023-06-22T10:19:25;25.90;99.90
59660;DHT22;45534;52.690;6.268;2023-06-22T10:21:51;26.10;99.90
59660;DHT22;45534;52.690;6.268;2023-06-22T10:24:17;26.40;99.90
59660;DHT22;45534;52.690;6.268;2023-06-22T10:26:43;26.70;99.90
59660;DHT22;45534;52.690;6.268;2023-06-22T10:29:08;27.00;99.90
59660;DHT22;45534;52.690;6.268;2023-06-22T10:31:34;27.20;99.90
59660;DHT22;45534;52.690;6.268;2023-06-22T10:34:00;27.30;99.80
59660;DHT22;45534;52.690;6.268;2023-06-22T10:36:25;27.30;98.60
59660;DHT22;45534;52.690;6.268;2023-06-22T10:38:51;27.40;98.60
59660;DHT22;45534;52.690;6.268;2023-06-22T10:41:18;27.30;99.60
59660;DHT22;45534;52.690;6.268;2023-06-22T10:43:44;27.30;99.10
59660;DHT22;45534;52.690;6.268;2023-06-22T10:46:10;27.10;98.30
59660;DHT22;45534;52.690;6.268;2023-06-22T10:48:35;26.70;97.40
59660;DHT22;45534;52.690;6.268;2023-06-22T10:51:01;26.40;98.80
59660;DHT22;45534;52.690;6.268;2023-06-22T10:53:27;26.30;99.90
59660;DHT22;45534;52.690;6.268;2023-06-22T10:55:52;26.10;99.90
59660;DHT22;45534;52.690;6.268;2023-06-22T10:58:19;26.10;99.90
59660;DHT22;45534;52.690;6.268;2023-06-22T11:00:45;26.00;99.10
59660;DHT22;45534;52.690;6.268;2023-06-22T11:03:11;25.90;99.00
59660;DHT22;45534;52.690;6.268;2023-06-22T11:05:37;25.60;98.70
59660;DHT22;45534;52.690;6.268;2023-06-22T11:08:03;25.50;99.50
59660;DHT22;45534;52.690;6.268;2023-06-22T11:10:29;25.50;99.90
59660;DHT22;45534;52.690;6.268;2023-06-22T11:12:54;25.50;99.90
59660;DHT22;45534;52.690;6.268;2023-06-22T11:15:21;25.60;99.90
59660;DHT22;45534;52.690;6.268;2023-06-22T11:17:47;25.60;99.90
59660;DHT22;45534;52.690;6.268;2023-06-22T11:20:12;25.60;99.10
59660;DHT22;45534;52.690;6.268;2023-06-22T11:22:42;25.70;99.40
59660;DHT22;45534;52.690;6.268;2023-06-22T11:25:08;25.80;99.90
59660;DHT22;45534;52.690;6.268;2023-06-22T11:27:34;25.80;99.70
59660;DHT22;45534;52.690;6.268;2023-06-22T11:30:00;25.80;98.90
59660;DHT22;45534;52.690;6.268;2023-06-22T11:32:26;25.80;99.00
59660;DHT22;45534;52.690;6.268;2023-06-22T11:34:51;25.80;99.40
59660;DHT22;45534;52.690;6.268;2023-06-22T11:37:17;25.80;98.70
59660;DHT22;45534;52.690;6.268;2023-06-22T11:39:43;25.80;99.80
59660;DHT22;45534;52.690;6.268;2023-06-22T11:42:09;25.80;99.90
59660;DHT22;45534;52.690;6.268;2023-06-22T11:44:35;25.80;99.90
59660;DHT22;45534;52.690;6.268;2023-06-22T11:47:00;25.80;99.90
59660;DHT22;45534;52.690;6.268;2023-06-22T11:49:27;25.90;99.90
59660;DHT22;45534;52.690;6.268;2023-06-22T11:51:53;25.90;99.90
59660;DHT22;45534;52.690;6.268;2023-06-22T11:54:18;25.90;99.90
59660;DHT22;45534;52.690;6.268;2023-06-22T11:56:44;25.90;99.70
59660;DHT22;45534;52.690;6.268;2023-06-22T11:59:10;25.90;99.70
59660;DHT22;45534;52.690;6.268;2023-06-22T12:01:36;25.90;99.00
59660;DHT22;45534;52.690;6.268;2023-06-22T12:04:02;25.80;99.00
59660;DHT22;45534;52.690;6.268;2023-06-22T12:06:31;25.70;98.60
59660;DHT22;45534;52.690;6.268;2023-06-22T12:08:57;25.60;99.90
59660;DHT22;45534;52.690;6.268;2023-06-22T12:11:23;25.60;99.90
59660;DHT22;45534;52.690;6.268;2023-06-22T12:13:49;25.60;99.90
59660;DHT22;45534;52.690;6.268;2023-06-22T12:16:14;25.50;99.90
59660;DHT22;45534;52.690;6.268;2023-06-22T12:18:40;25.50;99.90
59660;DHT22;45534;52.690;6.268;2023-06-22T12:21:07;25.50;99.90
59660;DHT22;45534;52.690;6.268;2023-06-22T12:23:32;25.60;99.90
59660;DHT22;45534;52.690;6.268;2023-06-22T12:25:58;25.50;99.90
59660;DHT22;45534;52.690;6.268;2023-06-22T12:28:25;25.50;99.90
59660;DHT22;45534;52.690;6.268;2023-06-22T12:30:51;25.40;99.90
59660;DHT22;45534;52.690;6.268;2023-06-22T12:33:16;25.40;99.90
59660;DHT22;45534;52.690;6.268;2023-06-22T12:35:43;25.40;99.90
59660;DHT22;45534;52.690;6.268;2023-06-22T12:38:10;25.40;99.90
59660;DHT22;45534;52.690;6.268;2023-06-22T12:40:36;25.40;99.90
59660;DHT22;45534;52.690;6.268;2023-06-22T12:43:02;25.40;99.90
59660;DHT22;45534;52.690;6.268;2023-06-22T12:45:28;25.30;99.90
59660;DHT22;45534;52.690;6.268;2023-06-22T12:47:57;25.20;99.90
59660;DHT22;45534;52.690;6.268;2023-06-22T12:50:22;25.00;99.90
59660;DHT22;45534;52.690;6.268;2023-06-22T12:52:48;24.90;99.90
59660;DHT22;45534;52.690;6.268;2023-06-22T12:55:14;24.90;99.90
59660;DHT22;45534;52.690;6.268;2023-06-22T12:57:39;24.80;99.90
59660;DHT22;45534;52.690;6.268;2023-06-22T13:00:06;24.80;99.90
59660;DHT22;45534;52.690;6.268;2023-06-22T13:02:33;24.80;99.90
59660;DHT22;45534;52.690;6.268;2023-06-22T13:04:59;24.80;99.90
59660;DHT22;45534;52.690;6.268;2023-06-22T13:07:24;24.80;99.90
59660;DHT22;45534;52.690;6.268;2023-06-22T13:09:51;24.90;99.90
59660;DHT22;45534;52.690;6.268;2023-06-22T13:12:24;24.90;99.90
59660;DHT22;45534;52.690;6.268;2023-06-22T13:14:50;24.90;99.90
59660;DHT22;45534;52.690;6.268;2023-06-22T13:17:16;24.90;99.90
59660;DHT22;45534;52.690;6.268;2023-06-22T13:19:42;24.80;99.90
59660;DHT22;45534;52.690;6.268;2023-06-22T13:22:26;24.80;99.90
59660;DHT22;45534;52.690;6.268;2023-06-22T13:24:52;24.80;99.90
59660;DHT22;45534;52.690;6.268;2023-06-22T13:27:17;24.70;99.90
59660;DHT22;45534;52.690;6.268;2023-06-22T13:29:43;24.70;99.90
59660;DHT22;45534;52.690;6.268;2023-06-22T13:32:09;24.60;99.90
59660;DHT22;45534;52.690;6.268;2023-06-22T13:34:34;24.50;99.90
59660;DHT22;45534;52.690;6.268;2023-06-22T13:37:00;24.50;99.90
59660;DHT22;45534;52.690;6.268;2023-06-22T13:39:28;24.40;99.90
59660;DHT22;45534;52.690;6.268;2023-06-22T13:42:06;24.30;99.90
59660;DHT22;45534;52.690;6.268;2023-06-22T13:44:32;24.20;99.90
59660;DHT22;45534;52.690;6.268;2023-06-22T13:46:58;24.10;99.90
59660;DHT22;45534;52.690;6.268;2023-06-22T13:49:24;24.00;99.90
59660;DHT22;45534;52.690;6.268;2023-06-22T13:51:50;24.00;99.90
59660;DHT22;45534;52.690;6.268;2023-06-22T13:54:16;23.90;99.90
59660;DHT22;45534;52.690;6.268;2023-06-22T13:56:50;23.80;99.90
59660;DHT22;45534;52.690;6.268;2023-06-22T13:59:16;23.80;99.90
59660;DHT22;45534;52.690;6.268;2023-06-22T14:01:41;23.80;99.90
59660;DHT22;45534;52.690;6.268;2023-06-22T14:04:08;23.80;99.90
59660;DHT22;45534;52.690;6.268;2023-06-22T14:06:34;23.80;99.90
59660;DHT22;45534;52.690;6.268;2023-06-22T14:09:00;23.70;99.90
59660;DHT22;45534;52.690;6.268;2023-06-22T14:11:26;23.60;99.90
59660;DHT22;45534;52.690;6.268;2023-06-22T14:13:51;23.50;99.90
59660;DHT22;45534;52.690;6.268;2023-06-22T14:16:17;23.40;99.90
59660;DHT22;45534;52.690;6.268;2023-06-22T14:18:44;23.30;99.90
59660;DHT22;45534;52.690;6.268;2023-06-22T14:21:10;23.10;99.90
59660;DHT22;45534;52.690;6.268;2023-06-22T14:23:35;22.90;99.90
59660;DHT22;45534;52.690;6.268;2023-06-22T14:26:02;22.70;99.90
59660;DHT22;45534;52.690;6.268;2023-06-22T14:28:28;22.50;99.90
59660;DHT22;45534;52.690;6.268;2023-06-22T14:30:54;22.30;99.90
59660;DHT22;45534;52.690;6.268;2023-06-22T14:33:20;22.30;99.90
59660;DHT22;45534;52.690;6.268;2023-06-22T14:35:46;22.10;99.90
59660;DHT22;45534;52.690;6.268;2023-06-22T14:38:11;22.00;99.90
59660;DHT22;45534;52.690;6.268;2023-06-22T14:40:37;21.90;99.90
59660;DHT22;45534;52.690;6.268;2023-06-22T14:43:03;21.80;99.90
59660;DHT22;45534;52.690;6.268;2023-06-22T14:45:28;21.70;99.90
59660;DHT22;45534;52.690;6.268;2023-06-22T14:47:54;21.60;99.90
59660;DHT22;45534;52.690;6.268;2023-06-22T14:50:20;21.50;99.90
59660;DHT22;45534;52.690;6.268;2023-06-22T14:52:46;21.40;99.90
59660;DHT22;45534;52.690;6.268;2023-06-22T14:55:11;21.30;99.90
59660;DHT22;45534;52.690;6.268;2023-06-22T14:57:37;21.30;99.90
59660;DHT22;45534;52.690;6.268;2023-06-22T15:00:03;21.20;99.90
59660;DHT22;45534;52.690;6.268;2023-06-22T15:02:29;21.20;99.90
59660;DHT22;45534;52.690;6.268;2023-06-22T15:04:54;21.10;99.90
59660;DHT22;45534;52.690;6.268;2023-06-22T15:07:21;21.10;99.90
59660;DHT22;45534;52.690;6.268;2023-06-22T15:09:46;21.00;99.90
59660;DHT22;45534;52.690;6.268;2023-06-22T15:12:12;20.90;99.90
59660;DHT22;45534;52.690;6.268;2023-06-22T15:14:41;20.90;99.90
59660;DHT22;45534;52.690;6.268;2023-06-22T15:17:07;20.80;99.90
59660;DHT22;45534;52.690;6.268;2023-06-22T15:19:36;20.70;99.90
59660;DHT22;45534;52.690;6.268;2023-06-22T15:22:05;20.70;99.90
59660;DHT22;45534;52.690;6.268;2023-06-22T15:24:31;20.70;99.90
59660;DHT22;45534;52.690;6.268;2023-06-22T15:26:57;20.70;99.90
59660;DHT22;45534;52.690;6.268;2023-06-22T15:29:23;20.70;99.90
59660;DHT22;45534;52.690;6.268;2023-06-22T15:31:48;20.60;99.90